Time;durP1;ratioP1;P1;durP2;ratioP2;P2;SDS_P1;SDS_P2;PMS_P1;PMS_P2;Temp;Humidity;BMP_temperature;BMP_pressure;BME280_temperature;BME280_humidity;BME280_pressure;Samples;Min_cycle;Max_cycle;Signal;HPM_P1;HPM_P2
2022/10/23 00:00:03;;;;;;;4.47;3.63;;;;;;;13.73;93.92;101535.91;6271421;28;20575;-74
2022/10/23 00:03:25;;;;;;;4.77;3.67;;;;;;;13.74;93.55;101525.94;6267122;28;20235;-74
2022/10/23 00:06:49;;;;;;;13.63;4.70;;;;;;;13.69;93.94;101522.78;6239249;28;20577;-74
2022/10/23 00:10:10;;;;;;;5.60;3.63;;;;;;;13.70;93.78;101527.22;6247630;28;20230;-74
2022/10/23 00:13:31;;;;;;;6.03;3.57;;;;;;;13.68;93.62;101527.38;6263889;28;20238;-73
2022/10/23 00:16:52;;;;;;;8.63;4.20;;;;;;;13.74;93.10;101537.63;6226553;28;20493;-74
2022/10/23 00:20:14;;;;;;;4.97;3.97;;;;;;;13.82;92.42;101543.22;6250801;28;20256;-73
2022/10/23 00:23:36;;;;;;;9.63;4.63;;;;;;;13.73;92.42;101546.75;6257829;28;20235;-74
2022/10/23 00:26:57;;;;;;;7.50;4.27;;;;;;;13.74;92.43;101539.50;6243689;28;20607;-73
2022/10/23 00:30:18;;;;;;;4.93;3.57;;;;;;;13.65;92.33;101535.75;6265066;28;20476;-74
2022/10/23 00:33:40;;;;;;;9.27;4.53;;;;;;;13.55;92.89;101543.03;6249767;28;21399;-72
2022/10/23 00:37:01;;;;;;;4.60;4.20;;;;;;;13.59;92.52;101548.03;6256999;28;21952;-73
2022/10/23 00:40:23;;;;;;;5.07;3.80;;;;;;;13.60;92.70;101538.06;6265258;28;20231;-74
2022/10/23 00:44:00;;;;;;;7.23;5.13;;;;;;;13.41;93.22;101541.53;6274399;28;20231;-73
2022/10/23 00:47:22;;;;;;;6.47;4.13;;;;;;;13.40;92.97;101541.69;6253282;28;20242;-73
2022/10/23 00:50:43;;;;;;;4.67;3.63;;;;;;;13.47;93.29;101535.59;6263587;28;20236;-73
2022/10/23 00:54:04;;;;;;;7.47;5.53;;;;;;;13.40;92.94;101541.69;6257978;28;20357;-73
2022/10/23 00:57:27;;;;;;;5.60;4.27;;;;;;;13.40;92.90;101542.56;6252760;28;20234;-74
2022/10/23 01:00:50;;;;;;;5.27;4.77;;;;;;;13.30;93.22;101546.22;6252828;28;20239;-74
2022/10/23 01:04:13;;;;;;;5.07;4.20;;;;;;;13.38;92.91;101541.84;6258664;28;20231;-74
2022/10/23 01:07:41;;;;;;;5.20;4.00;;;;;;;13.46;92.26;101546.53;6243933;28;20255;-73
2022/10/23 01:11:10;;;;;;;6.77;4.63;;;;;;;13.45;91.51;101537.59;6246326;28;20331;-74
2022/10/23 01:14:42;;;;;;;3.43;3.13;;;;;;;13.44;91.40;101535.00;6256187;28;20619;-73
2022/10/23 01:18:11;;;;;;;3.80;3.50;;;;;;;13.43;91.28;101531.41;6267279;28;20239;-73
2022/10/23 01:21:47;;;;;;;6.10;4.13;;;;;;;13.16;92.13;101533.91;6268206;28;20230;-73
2022/10/23 01:25:19;;;;;;;5.37;4.40;;;;;;;13.18;92.61;101536.50;6270460;28;20236;-73
2022/10/23 01:28:47;;;;;;;8.27;4.47;;;;;;;13.18;92.53;101529.22;6256064;28;20288;-73
2022/10/23 01:32:13;;;;;;;5.77;4.50;;;;;;;13.18;92.10;101533.78;6267482;28;20234;-73
2022/10/23 01:35:38;;;;;;;4.73;4.07;;;;;;;13.14;92.55;101535.88;6277421;28;20238;-73
2022/10/23 01:39:06;;;;;;;4.73;3.50;;;;;;;13.19;92.00;101536.34;6258501;28;20326;-73
2022/10/23 01:42:32;;;;;;;4.20;3.43;;;;;;;13.03;92.63;101535.09;6252421;28;20240;-73
2022/10/23 01:45:58;;;;;;;6.47;3.90;;;;;;;13.08;92.87;101531.00;6235634;28;20534;-74
2022/10/23 01:49:22;;;;;;;7.13;3.87;;;;;;;12.94;93.06;101519.66;6238971;28;20231;-73
2022/10/23 01:52:47;;;;;;;8.23;4.27;;;;;;;13.02;92.82;101523.41;6228526;28;20234;-72
2022/10/23 01:56:12;;;;;;;4.97;4.10;;;;;;;13.03;92.55;101525.13;6243788;28;20239;-73
2022/10/23 01:59:37;;;;;;;4.87;3.80;;;;;;;13.06;92.20;101529.47;6221985;28;20322;-73
2022/10/23 02:03:03;;;;;;;6.67;5.10;;;;;;;13.07;91.63;101523.91;6233975;28;20544;-73
2022/10/23 02:06:27;;;;;;;5.20;3.93;;;;;;;13.06;92.00;101519.47;6237957;28;20231;-73
2022/10/23 02:09:48;;;;;;;6.43;3.40;;;;;;;12.63;93.17;101519.66;6231049;28;20232;-72
2022/10/23 02:13:14;;;;;;;5.50;4.47;;;;;;;12.57;93.86;101524.75;6259159;28;20227;-72
2022/10/23 02:16:40;;;;;;;6.67;4.07;;;;;;;12.55;94.24;101524.91;6234507;28;20222;-72
2022/10/23 02:20:16;;;;;;;7.20;3.97;;;;;;;12.64;93.95;101517.81;6255596;28;20578;-72
2022/10/23 02:23:40;;;;;;;4.70;4.27;;;;;;;12.48;94.89;101506.59;6253825;28;20600;-73
2022/10/23 02:27:03;;;;;;;5.47;4.33;;;;;;;12.48;95.00;101506.59;6256405;28;20238;-73
2022/10/23 02:30:24;;;;;;;5.20;4.60;;;;;;;12.52;94.79;101506.22;6261590;28;20243;-73
2022/10/23 02:33:56;;;;;;;4.57;3.77;;;;;;;12.58;94.21;101508.38;6256295;28;20621;-73
2022/10/23 02:37:19;;;;;;;8.10;4.47;;;;;;;12.59;93.97;101510.09;6257092;28;20315;-73
2022/10/23 02:40:43;;;;;;;5.60;3.90;;;;;;;12.37;94.16;101521.03;6239307;28;20349;-73
2022/10/23 02:44:15;;;;;;;7.23;5.23;;;;;;;12.28;95.08;101510.19;6258918;28;20699;-73
2022/10/23 02:47:50;;;;;;;4.43;3.90;;;;;;;12.35;95.33;101514.09;6260555;28;20227;-72
2022/10/23 02:51:17;;;;;;;6.03;5.43;;;;;;;12.28;95.41;101521.84;6205108;28;20232;-73
2022/10/23 02:54:59;;;;;;;7.43;4.43;;;;;;;12.33;94.88;101519.59;6235245;28;20232;-74
2022/10/23 02:58:27;;;;;;;5.20;3.37;;;;;;;12.19;95.70;101506.41;6256971;28;20227;-73
2022/10/23 03:01:52;;;;;;;5.80;4.13;;;;;;;12.24;95.55;101514.13;6246655;28;20221;-73
2022/10/23 03:05:18;;;;;;;9.20;5.17;;;;;;;12.30;95.24;101506.38;6245095;28;20825;-72
2022/10/23 03:08:43;;;;;;;7.20;4.57;;;;;;;12.37;93.96;101504.81;6262254;28;20231;-72
2022/10/23 03:12:06;;;;;;;5.13;4.37;;;;;;;12.44;93.90;101510.56;6242984;28;20227;-73
2022/10/23 03:15:28;;;;;;;6.13;4.70;;;;;;;12.40;93.61;101507.28;6233895;28;20224;-73
2022/10/23 03:18:49;;;;;;;7.67;4.17;;;;;;;12.47;92.99;101500.38;6243107;28;20335;-73
2022/10/23 03:22:10;;;;;;;4.40;3.60;;;;;;;12.42;93.97;101499.88;6244709;28;20312;-73
2022/10/23 03:25:31;;;;;;;6.63;3.93;;;;;;;12.32;93.08;101503.53;6241930;28;20242;-73
2022/10/23 03:28:54;;;;;;;5.23;3.67;;;;;;;12.36;93.39;101507.66;6263683;28;20255;-73
2022/10/23 03:32:17;;;;;;;6.13;4.27;;;;;;;12.15;94.05;101510.38;6236560;28;20227;-73
2022/10/23 03:35:38;;;;;;;10.80;4.07;;;;;;;12.29;93.98;101504.63;6256878;28;20310;-73
2022/10/23 03:38:59;;;;;;;5.80;3.60;;;;;;;12.35;93.23;101511.38;6256515;28;20510;-72
2022/10/23 03:42:20;;;;;;;6.20;4.63;;;;;;;12.35;92.37;101504.09;6260765;28;20238;-73
2022/10/23 03:45:42;;;;;;;5.70;4.60;;;;;;;12.26;92.78;101501.34;6269376;28;20818;-73
2022/10/23 03:49:03;;;;;;;3.57;3.20;;;;;;;12.03;92.92;101498.78;6239929;28;20859;-72
2022/10/23 03:52:24;;;;;;;7.40;4.60;;;;;;;12.11;93.06;101500.81;6233669;28;20250;-73
2022/10/23 03:55:45;;;;;;;3.83;3.53;;;;;;;11.91;93.33;101502.47;6232405;28;20251;-73
2022/10/23 03:59:06;;;;;;;4.17;3.77;;;;;;;11.95;93.33;101503.94;6241040;28;20222;-73
2022/10/23 04:02:28;;;;;;;5.30;4.43;;;;;;;12.14;92.90;101505.94;6267563;28;20226;-73
2022/10/23 04:05:49;;;;;;;4.90;3.87;;;;;;;12.14;92.57;101499.69;6237460;28;20235;-72
2022/10/23 04:09:10;;;;;;;3.67;3.23;;;;;;;12.08;92.53;101500.22;6246996;28;20257;-72
2022/10/23 04:12:31;;;;;;;3.60;3.20;;;;;;;11.89;93.92;101504.47;6283656;28;20545;-72
2022/10/23 04:15:53;;;;;;;4.80;3.33;;;;;;;11.86;93.09;101496.63;6257175;28;20231;-72
2022/10/23 04:19:16;;;;;;;4.40;4.10;;;;;;;11.65;93.95;101501.09;6254271;28;20227;-73
2022/10/23 04:22:37;;;;;;;3.83;3.47;;;;;;;11.53;94.19;101501.25;6252813;28;20228;-74
2022/10/23 04:25:58;;;;;;;5.50;4.20;;;;;;;11.64;94.02;101502.06;6265005;28;20223;-73
2022/10/23 04:29:21;;;;;;;3.13;2.90;;;;;;;11.56;94.47;101509.94;6288172;28;20276;-73
2022/10/23 04:32:42;;;;;;;6.13;3.07;;;;;;;11.76;93.77;101486.72;6262685;28;20631;-73
2022/10/23 04:36:06;;;;;;;4.07;3.30;;;;;;;11.81;93.74;101487.19;6240886;28;20304;-73
2022/10/23 04:39:27;;;;;;;3.13;2.87;;;;;;;11.71;93.37;101481.72;6272066;28;20310;-74
2022/10/23 04:42:48;;;;;;;5.57;3.80;;;;;;;11.74;92.32;101469.78;6265858;28;20732;-73
2022/10/23 04:46:09;;;;;;;5.63;3.67;;;;;;;11.74;91.94;101465.25;6240596;28;20529;-72
2022/10/23 04:49:30;;;;;;;5.27;3.83;;;;;;;11.78;91.29;101472.13;6262755;28;20232;-73
2022/10/23 04:53:21;;;;;;;2.97;2.03;;;;;;;11.60;91.50;101484.41;6218306;28;20488;-73
2022/10/23 04:56:53;;;;;;;3.10;2.80;;;;;;;11.61;91.87;101475.34;6222315;28;20254;-73
2022/10/23 05:00:15;;;;;;;2.90;2.50;;;;;;;11.53;92.47;101479.66;6237804;28;20328;-73
2022/10/23 05:03:42;;;;;;;3.10;2.43;;;;;;;11.51;91.88;101479.78;6239126;28;20233;-73
2022/10/23 05:07:04;;;;;;;3.80;3.20;;;;;;;11.35;92.77;101479.31;6235091;28;22344;-73
2022/10/23 05:10:47;;;;;;;4.57;3.30;;;;;;;11.18;93.26;101475.31;6239214;28;20239;-72
2022/10/23 05:14:09;;;;;;;2.90;2.20;;;;;;;11.13;93.71;101476.69;6238530;28;20224;-73
2022/10/23 05:17:34;;;;;;;2.47;2.27;;;;;;;11.23;92.83;101473.09;6251827;28;20235;-74
2022/10/23 05:21:01;;;;;;;4.33;3.03;;;;;;;10.96;93.45;101472.66;6247992;28;20877;-74
2022/10/23 05:24:22;;;;;;;4.53;3.00;;;;;;;10.95;94.60;101472.78;6261090;28;20778;-74
2022/10/23 05:27:51;;;;;;;4.37;3.97;;;;;;;10.75;95.17;101466.28;6243187;28;20625;-73
2022/10/23 05:31:13;;;;;;;6.53;3.63;;;;;;;10.95;94.38;101462.81;6217526;28;20232;-73
2022/10/23 05:34:38;;;;;;;3.47;3.07;;;;;;;10.92;93.70;101473.00;6251692;28;20448;-73
2022/10/23 05:38:01;;;;;;;3.13;2.83;;;;;;;10.87;94.44;101478.78;6232104;28;20239;-74
2022/10/23 05:41:23;;;;;;;3.93;3.10;;;;;;;10.89;93.79;101467.88;6259353;28;20665;-73
2022/10/23 05:44:45;;;;;;;5.10;3.60;;;;;;;11.13;93.31;101463.19;6249653;28;20231;-72
2022/10/23 05:48:18;;;;;;;6.83;3.47;;;;;;;11.20;93.07;101449.06;6218308;28;20223;-73
2022/10/23 05:52:05;;;;;;;5.40;3.37;;;;;;;10.97;93.37;101468.13;6236978;28;20262;-73
2022/10/23 05:55:34;;;;;;;4.77;4.13;;;;;;;10.97;94.31;101470.81;6261464;28;20746;-73
2022/10/23 05:59:11;;;;;;;3.27;2.90;;;;;;;10.98;93.25;101483.31;6272932;28;20246;-73
2022/10/23 06:03:03;;;;;;;3.73;2.77;;;;;;;10.86;94.61;101485.16;6185599;28;20795;-73
2022/10/23 06:06:35;;;;;;;3.93;3.63;;;;;;;10.71;95.52;101480.13;6220942;28;20302;-73
2022/10/23 06:09:56;;;;;;;3.73;3.33;;;;;;;10.62;95.85;101476.31;6228445;28;20270;-73
2022/10/23 06:13:18;;;;;;;3.93;2.67;;;;;;;10.78;95.82;101481.38;6217038;28;20231;-74
2022/10/23 06:16:39;;;;;;;4.10;3.70;;;;;;;10.76;96.38;101478.81;6243281;28;20660;-74
2022/10/23 06:20:01;;;;;;;3.20;2.83;;;;;;;10.78;96.01;101487.63;6239658;28;20240;-74
2022/10/23 06:23:26;;;;;;;6.90;4.17;;;;;;;10.84;95.59;101487.13;6254058;28;20232;-74
2022/10/23 06:27:08;;;;;;;6.03;3.80;;;;;;;10.43;97.43;101487.69;6252008;28;20314;-74
2022/10/23 06:30:38;;;;;;;4.73;3.10;;;;;;;10.30;98.09;101478.00;6235728;28;20487;-74
2022/10/23 06:34:00;;;;;;;5.30;3.30;;;;;;;10.48;97.43;101483.78;6267898;28;20254;-73
2022/10/23 06:37:24;;;;;;;3.50;2.87;;;;;;;10.63;97.03;101471.78;6227009;28;20239;-74
2022/10/23 06:40:52;;;;;;;4.30;2.67;;;;;;;10.55;96.83;101476.94;6230343;28;20230;-73
2022/10/23 06:44:19;;;;;;;3.90;3.50;;;;;;;10.69;96.58;101476.69;6238537;28;20234;-73
2022/10/23 06:47:43;;;;;;;4.37;3.97;;;;;;;10.69;96.42;101482.09;6203452;28;20223;-73
2022/10/23 06:51:21;;;;;;;4.50;3.80;;;;;;;10.77;95.49;101474.25;6232031;28;20261;-74
2022/10/23 06:54:43;;;;;;;3.67;3.30;;;;;;;10.97;94.87;101471.66;6247157;28;20254;-73
2022/10/23 06:58:12;;;;;;;5.47;4.27;;;;;;;11.01;95.07;101466.88;6218501;28;20239;-73
2022/10/23 07:01:48;;;;;;;4.03;3.40;;;;;;;11.06;93.98;101461.97;6219837;28;20235;-73
2022/10/23 07:05:09;;;;;;;5.03;4.23;;;;;;;11.03;94.47;101465.78;6247004;28;20235;-73
2022/10/23 07:08:30;;;;;;;3.50;2.87;;;;;;;11.01;93.57;101466.88;6263765;28;20314;-73
2022/10/23 07:11:53;;;;;;;4.80;3.20;;;;;;;11.20;93.94;101465.25;6249762;28;20239;-74
2022/10/23 07:15:20;;;;;;;3.77;3.40;;;;;;;11.43;94.01;101457.09;6233448;28;20235;-74
2022/10/23 07:18:42;;;;;;;8.70;4.23;;;;;;;11.84;93.16;101455.38;6240705;28;20650;-74
2022/10/23 07:22:23;;;;;;;7.87;3.90;;;;;;;11.79;92.48;101460.31;6266898;28;20230;-73
2022/10/23 07:25:54;;;;;;;4.43;4.03;;;;;;;11.81;93.36;101468.28;6225532;28;20231;-75
2022/10/23 07:29:18;;;;;;;4.57;2.47;;;;;;;12.23;91.21;101478.13;6239227;28;20236;-73
2022/10/23 07:32:39;;;;;;;7.47;3.30;;;;;;;12.16;89.05;101479.63;6254172;28;20239;-72
2022/10/23 07:36:19;;;;;;;5.40;2.77;;;;;;;11.83;92.00;101483.38;6234553;28;20227;-73
2022/10/23 07:39:41;;;;;;;3.23;2.93;;;;;;;12.05;90.88;101479.72;6239883;28;20226;-73
2022/10/23 07:43:02;;;;;;;6.37;2.77;;;;;;;12.72;89.50;101474.72;6233996;28;20284;-73
2022/10/23 07:46:24;;;;;;;4.40;2.90;;;;;;;12.79;87.53;101481.28;6259365;28;20230;-73
2022/10/23 07:49:45;;;;;;;3.30;2.93;;;;;;;13.08;87.01;101479.59;6249980;28;20232;-74
2022/10/23 07:53:06;;;;;;;2.93;2.53;;;;;;;12.92;86.57;101478.34;6240968;28;20582;-75
2022/10/23 07:56:35;;;;;;;2.20;1.90;;;;;;;12.98;88.21;101481.38;6247132;28;20230;-73
2022/10/23 08:00:14;;;;;;;2.57;2.37;;;;;;;13.16;86.10;101487.03;6236996;28;20317;-74
2022/10/23 08:03:37;;;;;;;3.87;2.10;;;;;;;13.38;85.93;101475.97;6251399;28;20231;-74
2022/10/23 08:06:59;;;;;;;3.00;2.80;;;;;;;13.79;84.41;101472.19;6258017;28;20231;-74
2022/10/23 08:10:21;;;;;;;3.63;2.73;;;;;;;13.81;83.36;101460.19;6237016;28;21022;-73
2022/10/23 08:13:43;;;;;;;2.37;2.07;;;;;;;14.09;84.91;101450.31;6249048;28;20776;-73
2022/10/23 08:17:08;;;;;;;17.30;14.13;;;;;;;14.63;83.53;101455.94;6239674;28;20235;-71
2022/10/23 08:20:51;;;;;;;18.97;13.33;;;;;;;15.01;81.66;101455.78;6269367;28;20239;-69
2022/10/23 08:24:13;;;;;;;4.13;3.53;;;;;;;15.33;80.17;101452.63;6266616;28;20255;-74
2022/10/23 08:27:35;;;;;;;7.77;4.37;;;;;;;15.23;79.92;101455.38;6261499;28;20227;-69
2022/10/23 08:30:56;;;;;;;6.10;4.70;;;;;;;15.93;76.47;101443.75;6268685;28;20235;-70
2022/10/23 08:34:19;;;;;;;5.43;4.93;;;;;;;16.58;75.36;101447.78;6251862;28;20497;-73
2022/10/23 08:37:43;;;;;;;8.80;8.20;;;;;;;16.77;73.05;101442.13;6278168;28;20246;-73
2022/10/23 08:41:06;;;;;;;5.17;3.30;;;;;;;16.26;73.42;101441.25;6238998;28;20228;-72
2022/10/23 08:44:53;;;;;;;3.87;1.83;;;;;;;16.43;73.68;101440.38;6275957;28;20322;-72
2022/10/23 08:48:21;;;;;;;3.70;2.13;;;;;;;16.16;74.51;101435.94;6262462;28;20231;-72
2022/10/23 08:52:06;;;;;;;3.03;2.37;;;;;;;16.49;74.50;101435.19;6240237;28;20236;-72
2022/10/23 08:55:33;;;;;;;2.53;1.77;;;;;;;16.65;73.40;101437.97;6254954;28;20229;-72
2022/10/23 08:58:57;;;;;;;3.53;1.60;;;;;;;17.01;73.11;101427.78;6268742;28;20232;-73
2022/10/23 09:02:21;;;;;;;3.43;2.23;;;;;;;17.30;71.92;101427.34;6250641;28;20227;-72
2022/10/23 09:05:54;;;;;;;5.40;2.00;;;;;;;17.29;71.78;101421.06;6253152;28;20623;-72
2022/10/23 09:09:32;;;;;;;2.70;2.30;;;;;;;17.44;71.20;101422.13;6267085;28;20333;-73
2022/10/23 09:12:59;;;;;;;2.60;2.40;;;;;;;17.08;71.40;101417.94;6259875;28;20326;-72
2022/10/23 09:16:32;;;;;;;3.17;1.50;;;;;;;17.75;70.88;101410.63;6263870;28;20242;-72
2022/10/23 09:19:59;;;;;;;1.93;1.73;;;;;;;17.51;68.96;101415.03;6246748;28;20932;-72
2022/10/23 09:23:22;;;;;;;2.45;1.60;;;;;;;17.34;70.71;101417.81;6241990;28;20250;-72
2022/10/23 09:26:47;;;;;;;3.85;1.75;;;;;;;17.37;71.12;101410.19;6234538;28;21126;-72
2022/10/23 09:30:10;;;;;;;3.92;2.40;;;;;;;17.80;69.71;101406.34;6264340;28;20231;-73
2022/10/23 09:33:33;;;;;;;2.70;2.50;;;;;;;18.40;67.82;101404.06;6246355;28;20236;-73
2022/10/23 09:36:56;;;;;;;3.40;2.10;;;;;;;18.59;66.03;101413.78;6242725;28;20556;-73
2022/10/23 09:40:24;;;;;;;2.53;1.92;;;;;;;18.71;66.77;101420.59;6235414;28;20240;-72
2022/10/23 09:43:45;;;;;;;1.80;1.70;;;;;;;17.97;68.37;101416.25;6259599;28;20243;-73
2022/10/23 09:47:11;;;;;;;2.95;2.05;;;;;;;17.47;70.86;101410.03;6237211;28;20227;-73
2022/10/23 09:50:31;;;;;;;3.42;1.67;;;;;;;17.67;70.50;101418.78;6267119;28;20574;-72
2022/10/23 09:53:55;;;;;;;2.30;1.98;;;;;;;17.42;71.00;101415.97;6261148;28;20882;-72
2022/10/23 09:57:24;;;;;;;4.53;2.97;;;;;;;17.21;71.63;101418.31;6231808;28;20235;-72
2022/10/23 10:00:47;;;;;;;4.25;2.92;;;;;;;17.68;71.17;101412.31;6257257;28;20223;-73
2022/10/23 10:04:09;;;;;;;2.47;2.28;;;;;;;16.83;73.11;101416.13;6262283;28;20321;-72
2022/10/23 10:07:30;;;;;;;3.22;1.50;;;;;;;17.42;72.68;101421.44;6203181;28;20339;-73
2022/10/23 10:10:55;;;;;;;2.10;1.98;;;;;;;16.90;72.52;101411.72;6231042;28;20227;-69
2022/10/23 10:14:34;;;;;;;8.98;3.35;;;;;;;16.73;73.94;101413.53;6261528;28;20247;-73
2022/10/23 10:18:10;;;;;;;3.15;2.67;;;;;;;17.48;71.55;101396.22;6233402;28;20235;-74
2022/10/23 10:21:41;;;;;;;4.25;2.20;;;;;;;17.80;70.72;101395.44;6243633;28;20231;-73
2022/10/23 10:25:12;;;;;;;2.90;2.58;;;;;;;17.69;71.62;101390.31;6247789;28;20236;-73
2022/10/23 10:28:48;;;;;;;1.67;1.35;;;;;;;17.56;71.43;101388.06;6259826;28;20218;-72
2022/10/23 10:32:23;;;;;;;3.97;2.03;;;;;;;18.20;70.12;101383.66;6236007;28;21339;-72
2022/10/23 10:35:52;;;;;;;2.20;1.70;;;;;;;18.32;69.13;101384.97;6248104;28;20226;-73
2022/10/23 10:39:24;;;;;;;3.90;1.83;;;;;;;17.91;69.72;101367.81;6253942;28;20238;-72
2022/10/23 10:43:07;;;;;;;3.22;1.85;;;;;;;18.13;70.73;101360.78;6260412;28;20309;-73
2022/10/23 10:46:36;;;;;;;2.42;1.90;;;;;;;18.77;67.99;101346.13;6227983;28;20598;-72
2022/10/23 10:50:07;;;;;;;4.95;1.98;;;;;;;19.13;67.48;101334.47;6249372;28;20306;-72
2022/10/23 10:54:06;;;;;;;1.63;1.42;;;;;;;19.31;65.31;101336.09;6237159;28;20593;-72
2022/10/23 10:57:33;;;;;;;1.83;1.48;;;;;;;19.02;66.55;101345.00;6245746;28;20232;-75
2022/10/23 11:00:58;;;;;;;2.60;2.10;;;;;;;18.84;66.63;101347.09;6246275;28;20622;-74
2022/10/23 11:04:31;;;;;;;1.90;1.20;;;;;;;19.90;63.79;101330.66;6237430;28;20252;-74
2022/10/23 11:07:56;;;;;;;1.95;1.77;;;;;;;20.38;62.68;101323.03;6252871;28;20227;-73
2022/10/23 11:11:21;;;;;;;2.10;1.90;;;;;;;19.37;65.31;101321.72;6242739;28;20469;-74
2022/10/23 11:14:43;;;;;;;2.45;1.70;;;;;;;19.83;64.04;101310.56;6258158;28;20227;-74
2022/10/23 11:18:12;;;;;;;2.17;2.00;;;;;;;19.63;64.78;101305.78;6254910;28;20239;-74
2022/10/23 11:21:40;;;;;;;2.28;1.95;;;;;;;20.04;63.78;101298.88;6239598;28;20238;-75
2022/10/23 11:25:21;;;;;;;3.65;2.65;;;;;;;19.67;64.27;101290.72;6263916;28;20239;-73
2022/10/23 11:28:58;;;;;;;3.85;2.47;;;;;;;20.53;61.42;101289.09;6249340;28;20236;-74
2022/10/23 11:32:47;;;;;;;4.90;3.10;;;;;;;20.78;61.13;101283.31;6248111;28;20235;-75
2022/10/23 11:36:16;;;;;;;2.10;1.85;;;;;;;21.03;60.22;101281.91;6262858;28;20259;-75
2022/10/23 11:39:39;;;;;;;4.53;3.05;;;;;;;21.06;59.81;101284.28;6266016;28;20226;-75
2022/10/23 11:43:09;;;;;;;2.40;2.20;;;;;;;22.33;57.24;101271.22;6233555;28;20258;-74
2022/10/23 11:46:32;;;;;;;2.63;1.63;;;;;;;21.91;57.15;101271.38;6263991;28;20219;-74
2022/10/23 11:50:23;;;;;;;3.30;1.98;;;;;;;20.88;60.38;101264.66;6276649;28;20243;-73
2022/10/23 11:53:44;;;;;;;1.67;1.58;;;;;;;21.04;60.71;101264.44;6283416;28;20238;-74
2022/10/23 11:57:11;;;;;;;3.65;2.10;;;;;;;20.85;61.08;101257.66;6273435;28;20227;-75
2022/10/23 12:00:38;;;;;;;4.15;2.97;;;;;;;20.13;63.36;101244.91;6289283;28;20603;-74
2022/10/23 12:04:02;;;;;;;2.88;2.20;;;;;;;21.24;60.82;101221.59;6282870;28;20227;-74
2022/10/23 12:07:28;;;;;;;4.50;2.05;;;;;;;23.00;56.13;101225.44;6254847;28;20223;-74
2022/10/23 12:10:51;;;;;;;1.80;1.58;;;;;;;21.80;57.73;101230.72;6269122;28;20663;-74
2022/10/23 12:14:26;;;;;;;2.33;2.13;;;;;;;22.85;55.88;101221.16;6275672;28;20247;-75
2022/10/23 12:17:48;;;;;;;3.20;1.98;;;;;;;21.71;58.38;101224.53;6275712;28;20231;-75
2022/10/23 12:21:20;;;;;;;1.88;1.60;;;;;;;20.80;60.61;101213.53;6269718;28;20640;-75
2022/10/23 12:25:00;;;;;;;2.42;1.67;;;;;;;20.51;61.76;101208.97;6288237;28;20235;-74
2022/10/23 12:28:31;;;;;;;2.90;2.15;;;;;;;20.25;63.01;101192.22;6283681;28;20231;-74
2022/10/23 12:32:00;;;;;;;3.38;1.58;;;;;;;20.12;63.82;101194.75;6267029;28;20230;-73
2022/10/23 12:35:48;;;;;;;37.90;3.83;;;;;;;19.61;65.40;101190.22;6279359;28;20754;-74
2022/10/23 12:39:26;;;;;;;4.22;2.22;;;;;;;19.69;65.67;101176.47;6280009;28;20246;-74
2022/10/23 12:42:53;;;;;;;2.45;2.25;;;;;;;19.44;65.98;101170.38;6282353;28;20235;-74
2022/10/23 12:46:29;;;;;;;3.47;2.00;;;;;;;19.10;67.58;101157.19;6286035;28;20532;-74
2022/10/23 12:49:51;;;;;;;2.03;1.50;;;;;;;18.65;69.71;101168.13;6283333;28;20677;-75
2022/10/23 12:53:17;;;;;;;3.28;2.30;;;;;;;18.20;71.04;101154.38;6264934;28;20235;-75
2022/10/23 12:56:38;;;;;;;4.25;2.13;;;;;;;18.46;71.00;101138.53;6289769;28;20222;-73
2022/10/23 13:00:05;;;;;;;3.75;2.55;;;;;;;18.50;71.01;101125.41;6284945;28;20215;-74
2022/10/23 13:03:27;;;;;;;3.50;1.75;;;;;;;18.34;71.50;101120.84;6283163;28;20347;-74
2022/10/23 13:06:49;;;;;;;1.92;1.70;;;;;;;18.20;72.06;101113.44;6277878;28;20231;-74
2022/10/23 13:10:14;;;;;;;1.92;1.80;;;;;;;17.90;73.41;101103.38;6276735;28;20230;-74
2022/10/23 13:13:44;;;;;;;3.72;3.10;;;;;;;17.86;73.34;101099.28;6267623;28;20230;-74
2022/10/23 13:17:10;;;;;;;3.38;1.77;;;;;;;17.78;73.62;101085.69;6286720;28;20230;-74
2022/10/23 13:20:33;;;;;;;2.28;1.73;;;;;;;17.70;73.93;101083.00;6287128;28;20231;-74
2022/10/23 13:23:55;;;;;;;2.28;1.55;;;;;;;17.64;74.16;101078.25;6292141;28;20227;-74
2022/10/23 13:27:31;;;;;;;3.60;1.60;;;;;;;17.66;74.61;101070.75;6286491;28;20686;-74
2022/10/23 13:31:07;;;;;;;1.85;1.73;;;;;;;17.60;74.31;101068.75;6281250;28;21762;-75
2022/10/23 13:34:31;;;;;;;4.05;2.08;;;;;;;17.81;73.98;101067.13;6280675;28;20234;-75
2022/10/23 13:37:52;;;;;;;5.32;1.90;;;;;;;17.83;73.73;101064.19;6257308;28;20612;-75
2022/10/23 13:41:15;;;;;;;3.17;2.33;;;;;;;17.60;74.56;101063.28;6274588;28;21779;-74
2022/10/23 13:44:36;;;;;;;3.78;1.75;;;;;;;17.76;74.42;101052.28;6279410;28;20586;-74
2022/10/23 13:47:57;;;;;;;2.33;1.70;;;;;;;17.88;74.03;101043.53;6275927;28;20249;-74
2022/10/23 13:51:22;;;;;;;4.83;1.47;;;;;;;17.80;74.03;101037.28;6285563;28;20231;-73
2022/10/23 13:54:43;;;;;;;2.38;1.92;;;;;;;17.78;74.01;101028.41;6286032;28;20230;-75
2022/10/23 13:58:04;;;;;;;2.55;2.35;;;;;;;17.64;74.51;101016.41;6283053;28;20231;-74
2022/10/23 14:01:27;;;;;;;3.50;2.22;;;;;;;17.75;74.40;101020.59;6286484;28;20644;-74
2022/10/23 14:04:49;;;;;;;3.47;3.17;;;;;;;17.79;74.44;101019.22;6282591;28;20234;-74
2022/10/23 14:08:12;;;;;;;2.03;1.73;;;;;;;17.75;74.67;101028.78;6284259;28;20263;-74
2022/10/23 14:11:33;;;;;;;4.07;1.43;;;;;;;17.62;75.18;101025.78;6279975;28;20242;-74
2022/10/23 14:14:54;;;;;;;2.75;1.55;;;;;;;17.43;76.04;101024.31;6282115;28;20564;-73
2022/10/23 14:18:15;;;;;;;3.90;1.98;;;;;;;17.36;76.51;101029.59;6266283;28;20251;-74
2022/10/23 14:21:36;;;;;;;1.60;1.37;;;;;;;17.27;76.98;101019.75;6281048;28;20227;-74
2022/10/23 14:24:58;;;;;;;2.03;1.42;;;;;;;17.20;77.42;101017.91;6271620;28;20231;-74
2022/10/23 14:28:19;;;;;;;4.67;1.60;;;;;;;17.15;77.48;101014.84;6274125;28;21149;-73
2022/10/23 14:31:40;;;;;;;4.13;1.50;;;;;;;17.10;77.98;101012.69;6262755;28;20268;-74
2022/10/23 14:35:02;;;;;;;2.37;1.33;;;;;;;17.12;77.80;101023.41;6280730;28;20227;-74
2022/10/23 14:38:23;;;;;;;1.90;1.30;;;;;;;16.95;78.52;101013.56;6276339;28;20219;-74
2022/10/23 14:41:46;;;;;;;2.35;1.40;;;;;;;16.90;78.78;101015.97;6266144;28;20260;-74
2022/10/23 14:45:08;;;;;;;3.10;1.43;;;;;;;17.15;79.07;101003.94;6274229;28;20251;-73
2022/10/23 14:48:29;;;;;;;1.97;1.37;;;;;;;17.08;78.58;100995.66;6271245;28;20326;-79
2022/10/23 14:51:50;;;;;;;1.33;1.23;;;;;;;17.14;79.22;100994.09;6256891;28;20305;-75
2022/10/23 14:55:11;;;;;;;1.50;1.40;;;;;;;17.22;79.42;100988.63;6273883;28;20790;-75
2022/10/23 14:58:33;;;;;;;4.70;2.07;;;;;;;17.18;79.03;100985.41;6274890;28;20591;-75
2022/10/23 15:01:54;;;;;;;1.23;1.17;;;;;;;16.91;79.01;100987.69;6251352;28;20223;-75
2022/10/23 15:05:15;;;;;;;3.03;1.50;;;;;;;17.00;79.72;100979.31;6238935;28;20258;-75
2022/10/23 15:08:36;;;;;;;1.55;1.20;;;;;;;17.10;79.32;100977.25;6264384;28;20227;-72
2022/10/23 15:11:57;;;;;;;1.95;1.83;;;;;;;17.16;78.76;100990.19;6260125;28;20714;-73
2022/10/23 15:15:21;;;;;;;1.10;1.00;;;;;;;16.79;79.88;100992.69;6253829;28;20262;-74
2022/10/23 15:18:41;;;;;;;1.67;1.50;;;;;;;16.79;80.08;100984.50;6252173;28;20230;-74
2022/10/23 15:22:02;;;;;;;2.83;2.27;;;;;;;16.87;79.54;100948.22;6247077;28;20269;-73
2022/10/23 15:25:23;;;;;;;3.70;1.53;;;;;;;17.03;79.58;100951.75;6257232;28;20235;-73
2022/10/23 15:28:44;;;;;;;3.17;1.90;;;;;;;17.12;78.83;100934.34;6232732;28;20243;-73
2022/10/23 15:32:09;;;;;;;6.77;2.60;;;;;;;17.01;79.12;100929.28;6243148;28;20220;-74
2022/10/23 15:35:30;;;;;;;1.50;0.98;;;;;;;16.79;79.72;100927.31;6263661;28;20453;-74
2022/10/23 15:38:52;;;;;;;5.33;1.80;;;;;;;16.70;80.92;100925.63;6247579;28;20227;-74
2022/10/23 15:42:13;;;;;;;7.77;2.03;;;;;;;16.65;81.37;100925.28;6250852;28;20232;-73
2022/10/23 15:45:34;;;;;;;2.07;1.87;;;;;;;16.64;81.08;100910.00;6241813;28;20250;-74
2022/10/23 15:48:56;;;;;;;6.95;3.25;;;;;;;16.36;82.12;100928.56;6265379;28;20592;-73
2022/10/23 15:52:16;;;;;;;1.52;1.42;;;;;;;16.18;82.91;100936.06;6261857;28;20322;-75
2022/10/23 15:55:37;;;;;;;2.63;1.65;;;;;;;16.12;83.65;100925.88;6275032;28;20239;-77